sensor_id;sensor_type;location;lat;lon;timestamp;pressure;altitude;pressure_sealevel;temperature;humidity
42519;BME280;28147;47.520;18.920;2022-12-18T08:10:15;100264.63;;;0.14;71.06
42519;BME280;28147;47.520;18.920;2022-12-18T08:13:39;100274.56;;;0.86;69.92
42519;BME280;28147;47.520;18.920;2022-12-18T08:18:56;100276.38;;;1.60;66.32
42519;BME280;28147;47.520;18.920;2022-12-18T08:21:24;100282.56;;;1.38;66.24
42519;BME280;28147;47.520;18.920;2022-12-18T08:26:07;100295.75;;;0.94;67.42
42519;BME280;28147;47.520;18.920;2022-12-18T08:28:33;100289.78;;;1.04;66.39
42519;BME280;28147;47.520;18.920;2022-12-18T08:30:59;100286.72;;;0.99;65.93
42519;BME280;28147;47.520;18.920;2022-12-18T08:33:25;100299.34;;;1.46;64.63
42519;BME280;28147;47.520;18.920;2022-12-18T08:35:51;100291.94;;;1.52;65.94
42519;BME280;28147;47.520;18.920;2022-12-18T08:40:19;100295.75;;;1.27;65.58
42519;BME280;28147;47.520;18.920;2022-12-18T08:42:44;100295.31;;;1.42;65.67
42519;BME280;28147;47.520;18.920;2022-12-18T08:45:28;100304.19;;;1.72;64.87
42519;BME280;28147;47.520;18.920;2022-12-18T08:47:53;100303.94;;;1.33;63.30
42519;BME280;28147;47.520;18.920;2022-12-18T08:50:19;100308.72;;;1.70;62.12
42519;BME280;28147;47.520;18.920;2022-12-18T08:52:45;100314.19;;;1.78;61.83
42519;BME280;28147;47.520;18.920;2022-12-18T08:55:10;100306.06;;;1.60;60.55
42519;BME280;28147;47.520;18.920;2022-12-18T08:57:36;100303.31;;;1.41;63.17
42519;BME280;28147;47.520;18.920;2022-12-18T09:00:02;100309.44;;;1.51;63.18
42519;BME280;28147;47.520;18.920;2022-12-18T09:02:27;100310.28;;;1.73;62.93
42519;BME280;28147;47.520;18.920;2022-12-18T09:04:53;100314.00;;;2.01;63.58
42519;BME280;28147;47.520;18.920;2022-12-18T09:07:18;100313.00;;;2.23;62.54
42519;BME280;28147;47.520;18.920;2022-12-18T09:09:43;100327.84;;;2.33;61.97
42519;BME280;28147;47.520;18.920;2022-12-18T09:12:09;100327.94;;;2.22;61.87
42519;BME280;28147;47.520;18.920;2022-12-18T09:14:35;100331.34;;;2.43;62.34
42519;BME280;28147;47.520;18.920;2022-12-18T09:17:00;100344.25;;;2.16;61.45
42519;BME280;28147;47.520;18.920;2022-12-18T09:19:26;100339.09;;;2.14;61.02
42519;BME280;28147;47.520;18.920;2022-12-18T09:21:51;100334.44;;;2.58;61.15
42519;BME280;28147;47.520;18.920;2022-12-18T09:24:17;100335.41;;;2.27;59.97
42519;BME280;28147;47.520;18.920;2022-12-18T09:26:43;100332.72;;;3.46;59.11
42519;BME280;28147;47.520;18.920;2022-12-18T09:29:08;100342.81;;;3.60;58.10
42519;BME280;28147;47.520;18.920;2022-12-18T09:31:35;100336.84;;;3.68;57.98
42519;BME280;28147;47.520;18.920;2022-12-18T09:34:00;100328.94;;;4.25;57.36
42519;BME280;28147;47.520;18.920;2022-12-18T09:36:26;100326.97;;;4.27;56.79
42519;BME280;28147;47.520;18.920;2022-12-18T09:38:52;100335.63;;;4.47;55.95
42519;BME280;28147;47.520;18.920;2022-12-18T09:46:43;100333.22;;;5.52;54.70
42519;BME280;28147;47.520;18.920;2022-12-18T09:49:12;100325.06;;;5.64;54.26
42519;BME280;28147;47.520;18.920;2022-12-18T09:54:23;100322.91;;;5.05;55.53
42519;BME280;28147;47.520;18.920;2022-12-18T09:56:49;100325.81;;;4.67;55.27
42519;BME280;28147;47.520;18.920;2022-12-18T09:59:23;100326.16;;;4.17;55.05
42519;BME280;28147;47.520;18.920;2022-12-18T10:01:49;100328.38;;;4.76;55.18
42519;BME280;28147;47.520;18.920;2022-12-18T10:04:14;100333.41;;;4.70;53.84
42519;BME280;28147;47.520;18.920;2022-12-18T10:10:03;100324.75;;;4.32;55.72
42519;BME280;28147;47.520;18.920;2022-12-18T10:12:53;100321.94;;;4.06;56.91
42519;BME280;28147;47.520;18.920;2022-12-18T10:15:30;100326.84;;;4.56;56.79
42519;BME280;28147;47.520;18.920;2022-12-18T10:17:59;100328.28;;;4.68;55.81
42519;BME280;28147;47.520;18.920;2022-12-18T10:20:45;100327.84;;;4.18;56.67
42519;BME280;28147;47.520;18.920;2022-12-18T10:28:20;100321.88;;;5.16;53.28
42519;BME280;28147;47.520;18.920;2022-12-18T10:30:46;100317.94;;;3.92;54.65
42519;BME280;28147;47.520;18.920;2022-12-18T10:33:18;100330.50;;;4.45;56.01
42519;BME280;28147;47.520;18.920;2022-12-18T10:35:44;100327.66;;;4.56;54.08
42519;BME280;28147;47.520;18.920;2022-12-18T10:43:41;100330.38;;;5.28;52.57
42519;BME280;28147;47.520;18.920;2022-12-18T10:51:30;100329.78;;;5.96;49.02
42519;BME280;28147;47.520;18.920;2022-12-18T10:56:29;100332.25;;;5.53;50.21
42519;BME280;28147;47.520;18.920;2022-12-18T10:59:07;100326.88;;;4.74;52.61
42519;BME280;28147;47.520;18.920;2022-12-18T11:01:54;100328.03;;;4.89;51.49
42519;BME280;28147;47.520;18.920;2022-12-18T11:04:25;100322.84;;;5.95;52.64
42519;BME280;28147;47.520;18.920;2022-12-18T11:07:05;100307.53;;;6.06;50.72
42519;BME280;28147;47.520;18.920;2022-12-18T11:09:32;100317.47;;;6.13;50.63
42519;BME280;28147;47.520;18.920;2022-12-18T11:12:01;100316.19;;;5.29;51.32
42519;BME280;28147;47.520;18.920;2022-12-18T11:14:46;100311.00;;;5.63;51.00
42519;BME280;28147;47.520;18.920;2022-12-18T11:17:28;100314.00;;;5.68;50.23
42519;BME280;28147;47.520;18.920;2022-12-18T11:20:00;100308.47;;;5.53;50.04
42519;BME280;28147;47.520;18.920;2022-12-18T11:22:28;100302.69;;;5.76;48.23
42519;BME280;28147;47.520;18.920;2022-12-18T11:27:38;100303.31;;;5.08;50.57
42519;BME280;28147;47.520;18.920;2022-12-18T11:30:23;100308.38;;;5.63;49.15
42519;BME280;28147;47.520;18.920;2022-12-18T11:35:42;100313.47;;;5.39;48.57
42519;BME280;28147;47.520;18.920;2022-12-18T11:38:24;100309.34;;;5.80;48.38
42519;BME280;28147;47.520;18.920;2022-12-18T11:41:01;100298.47;;;6.17;47.67
42519;BME280;28147;47.520;18.920;2022-12-18T11:43:37;100296.63;;;5.83;48.29
42519;BME280;28147;47.520;18.920;2022-12-18T11:46:18;100291.03;;;4.53;49.47
42519;BME280;28147;47.520;18.920;2022-12-18T11:48:57;100288.34;;;4.81;49.08
42519;BME280;28147;47.520;18.920;2022-12-18T11:51:35;100285.31;;;4.03;50.85
42519;BME280;28147;47.520;18.920;2022-12-18T11:54:13;100292.56;;;3.91;51.29
42519;BME280;28147;47.520;18.920;2022-12-18T11:56:51;100287.91;;;4.68;50.35
42519;BME280;28147;47.520;18.920;2022-12-18T11:59:22;100290.47;;;5.13;48.31
42519;BME280;28147;47.520;18.920;2022-12-18T12:07:06;100282.50;;;5.23;49.30
42519;BME280;28147;47.520;18.920;2022-12-18T12:12:39;100284.91;;;5.16;47.52
42519;BME280;28147;47.520;18.920;2022-12-18T12:18:01;100275.66;;;4.49;48.86
42519;BME280;28147;47.520;18.920;2022-12-18T12:20:53;100282.63;;;5.03;49.08
42519;BME280;28147;47.520;18.920;2022-12-18T12:26:34;100277.88;;;4.26;52.17
42519;BME280;28147;47.520;18.920;2022-12-18T12:39:40;100279.66;;;3.41;49.85
42519;BME280;28147;47.520;18.920;2022-12-18T12:42:41;100285.19;;;3.48;51.25
42519;BME280;28147;47.520;18.920;2022-12-18T12:45:28;100292.56;;;3.05;51.53
42519;BME280;28147;47.520;18.920;2022-12-18T12:49:16;100302.25;;;3.24;51.65
42519;BME280;28147;47.520;18.920;2022-12-18T12:51:45;100308.59;;;3.22;51.14
42519;BME280;28147;47.520;18.920;2022-12-18T12:54:21;100311.38;;;3.39;51.79
42519;BME280;28147;47.520;18.920;2022-12-18T13:00:15;100321.34;;;2.97;50.90
42519;BME280;28147;47.520;18.920;2022-12-18T13:02:54;100322.31;;;2.96;51.18
42519;BME280;28147;47.520;18.920;2022-12-18T13:05:28;100320.53;;;2.97;51.68
42519;BME280;28147;47.520;18.920;2022-12-18T13:08:08;100321.06;;;3.10;52.22
42519;BME280;28147;47.520;18.920;2022-12-18T13:23:33;100328.63;;;2.64;55.36
42519;BME280;28147;47.520;18.920;2022-12-18T13:38:42;100338.66;;;2.90;56.69
42519;BME280;28147;47.520;18.920;2022-12-18T13:49:43;100359.47;;;3.22;59.81
42519;BME280;28147;47.520;18.920;2022-12-18T14:02:24;100342.47;;;2.76;59.74
42519;BME280;28147;47.520;18.920;2022-12-18T14:04:50;100346.59;;;2.59;60.37
42519;BME280;28147;47.520;18.920;2022-12-18T14:09:59;100352.38;;;2.53;59.86
42519;BME280;28147;47.520;18.920;2022-12-18T14:16:16;100358.97;;;2.38;61.45
42519;BME280;28147;47.520;18.920;2022-12-18T14:26:28;100361.34;;;2.41;65.01
42519;BME280;28147;47.520;18.920;2022-12-18T14:31:30;100360.75;;;2.28;63.33
42519;BME280;28147;47.520;18.920;2022-12-18T14:33:57;100368.81;;;2.15;63.63
42519;BME280;28147;47.520;18.920;2022-12-18T15:35:23;100441.28;;;0.55;71.56
42519;BME280;28147;47.520;18.920;2022-12-18T15:38:52;100457.50;;;0.60;71.54
42519;BME280;28147;47.520;18.920;2022-12-18T15:41:42;100460.97;;;0.61;71.30
42519;BME280;28147;47.520;18.920;2022-12-18T15:44:28;100466.66;;;0.55;71.44
42519;BME280;28147;47.520;18.920;2022-12-18T15:46:54;100452.97;;;0.51;71.71
42519;BME280;28147;47.520;18.920;2022-12-18T15:50:33;100468.31;;;0.44;71.84
42519;BME280;28147;47.520;18.920;2022-12-18T16:08:23;100475.81;;;0.38;71.20
42519;BME280;28147;47.520;18.920;2022-12-18T16:16:18;100482.22;;;0.34;70.99
42519;BME280;28147;47.520;18.920;2022-12-18T16:19:37;100482.34;;;0.32;71.51
42519;BME280;28147;47.520;18.920;2022-12-18T16:22:03;100486.00;;;0.18;71.98
42519;BME280;28147;47.520;18.920;2022-12-18T16:26:13;100491.53;;;0.27;71.66
42519;BME280;28147;47.520;18.920;2022-12-18T16:37:06;100503.63;;;0.16;72.05
42519;BME280;28147;47.520;18.920;2022-12-18T16:40:19;100494.34;;;0.12;71.70
42519;BME280;28147;47.520;18.920;2022-12-18T16:46:48;100515.50;;;0.09;71.62
42519;BME280;28147;47.520;18.920;2022-12-18T16:49:15;100516.72;;;0.16;71.48
42519;BME280;28147;47.520;18.920;2022-12-18T16:56:26;100513.03;;;-0.16;72.58
42519;BME280;28147;47.520;18.920;2022-12-18T17:09:07;100495.13;;;-0.34;73.22
42519;BME280;28147;47.520;18.920;2022-12-18T17:50:41;100521.66;;;-0.51;73.21
42519;BME280;28147;47.520;18.920;2022-12-18T18:08:43;100515.56;;;-0.88;74.84
42519;BME280;28147;47.520;18.920;2022-12-18T18:26:19;100509.59;;;-0.78;74.21
42519;BME280;28147;47.520;18.920;2022-12-18T18:40:39;100545.59;;;-0.81;74.13
42519;BME280;28147;47.520;18.920;2022-12-18T19:10:23;100552.50;;;-0.93;73.83
42519;BME280;28147;47.520;18.920;2022-12-18T19:28:07;100571.22;;;-1.12;73.50
42519;BME280;28147;47.520;18.920;2022-12-18T19:41:06;100582.22;;;-0.94;72.67
42519;BME280;28147;47.520;18.920;2022-12-18T19:45:11;100574.28;;;-1.05;73.07
42519;BME280;28147;47.520;18.920;2022-12-18T19:59:59;100591.19;;;-1.24;73.27
42519;BME280;28147;47.520;18.920;2022-12-18T20:02:25;100592.88;;;-1.23;73.65
42519;BME280;28147;47.520;18.920;2022-12-18T20:04:50;100591.50;;;-1.15;73.72
42519;BME280;28147;47.520;18.920;2022-12-18T20:07:29;100594.44;;;-1.20;73.50
42519;BME280;28147;47.520;18.920;2022-12-18T20:09:57;100594.97;;;-1.02;73.96
42519;BME280;28147;47.520;18.920;2022-12-18T20:12:22;100588.19;;;-1.17;73.42
42519;BME280;28147;47.520;18.920;2022-12-18T20:14:47;100595.19;;;-1.05;73.30
42519;BME280;28147;47.520;18.920;2022-12-18T20:17:13;100607.69;;;-1.10;73.45
42519;BME280;28147;47.520;18.920;2022-12-18T20:19:38;100604.03;;;-0.95;73.57
42519;BME280;28147;47.520;18.920;2022-12-18T20:22:04;100607.81;;;-0.86;72.93
42519;BME280;28147;47.520;18.920;2022-12-18T20:26:31;100620.28;;;-0.90;72.85
42519;BME280;28147;47.520;18.920;2022-12-18T20:29:31;100608.75;;;-1.00;73.18
42519;BME280;28147;47.520;18.920;2022-12-18T20:31:58;100617.75;;;-0.79;72.69
42519;BME280;28147;47.520;18.920;2022-12-18T20:34:23;100619.81;;;-0.84;72.41
42519;BME280;28147;47.520;18.920;2022-12-18T20:36:49;100620.69;;;-1.09;73.74
42519;BME280;28147;47.520;18.920;2022-12-18T20:39:14;100621.41;;;-0.94;73.20
42519;BME280;28147;47.520;18.920;2022-12-18T20:42:56;100616.81;;;-0.90;72.82
42519;BME280;28147;47.520;18.920;2022-12-18T20:45:22;100611.78;;;-1.06;73.66
42519;BME280;28147;47.520;18.920;2022-12-18T20:47:47;100611.25;;;-0.99;73.38
42519;BME280;28147;47.520;18.920;2022-12-18T20:50:13;100626.53;;;-1.05;74.01
42519;BME280;28147;47.520;18.920;2022-12-18T20:52:38;100624.56;;;-1.02;74.73
42519;BME280;28147;47.520;18.920;2022-12-18T20:55:15;100619.63;;;-0.93;74.09
42519;BME280;28147;47.520;18.920;2022-12-18T20:57:40;100622.34;;;-0.95;73.86
42519;BME280;28147;47.520;18.920;2022-12-18T21:00:06;100628.94;;;-0.77;74.46
42519;BME280;28147;47.520;18.920;2022-12-18T21:02:31;100633.44;;;-0.79;73.54
42519;BME280;28147;47.520;18.920;2022-12-18T21:04:57;100626.22;;;-0.88;73.29
42519;BME280;28147;47.520;18.920;2022-12-18T21:07:22;100630.06;;;-1.06;74.23
42519;BME280;28147;47.520;18.920;2022-12-18T21:09:48;100624.53;;;-1.14;74.26
42519;BME280;28147;47.520;18.920;2022-12-18T21:13:02;100634.69;;;-0.71;75.39
42519;BME280;28147;47.520;18.920;2022-12-18T21:15:27;100639.00;;;-0.83;73.88
42519;BME280;28147;47.520;18.920;2022-12-18T21:19:51;100629.78;;;-0.89;73.73
42519;BME280;28147;47.520;18.920;2022-12-18T21:28:17;100618.72;;;-0.43;73.25
42519;BME280;28147;47.520;18.920;2022-12-18T21:30:42;100624.34;;;-0.23;72.78
42519;BME280;28147;47.520;18.920;2022-12-18T21:33:08;100628.47;;;-0.08;73.57
42519;BME280;28147;47.520;18.920;2022-12-18T21:35:43;100636.50;;;0.26;73.89
42519;BME280;28147;47.520;18.920;2022-12-18T21:39:38;100608.06;;;-0.03;72.40
42519;BME280;28147;47.520;18.920;2022-12-18T21:42:03;100610.28;;;-0.10;72.48
42519;BME280;28147;47.520;18.920;2022-12-18T21:44:39;100616.47;;;-0.11;72.62
42519;BME280;28147;47.520;18.920;2022-12-18T21:48:23;100610.94;;;-0.19;72.62
42519;BME280;28147;47.520;18.920;2022-12-18T21:50:49;100610.88;;;-0.43;73.34
42519;BME280;28147;47.520;18.920;2022-12-18T21:53:14;100623.56;;;-0.50;73.39
42519;BME280;28147;47.520;18.920;2022-12-18T21:55:39;100623.72;;;-0.27;73.06
42519;BME280;28147;47.520;18.920;2022-12-18T22:01:30;100605.50;;;-0.29;73.17
42519;BME280;28147;47.520;18.920;2022-12-18T22:06:10;100606.53;;;-0.18;72.39
42519;BME280;28147;47.520;18.920;2022-12-18T22:08:36;100614.88;;;-0.13;72.48
42519;BME280;28147;47.520;18.920;2022-12-18T22:11:01;100608.34;;;-0.08;72.00
42519;BME280;28147;47.520;18.920;2022-12-18T22:13:27;100609.53;;;-0.12;71.95
42519;BME280;28147;47.520;18.920;2022-12-18T22:15:52;100606.06;;;-0.12;71.89
42519;BME280;28147;47.520;18.920;2022-12-18T22:18:18;100610.25;;;-0.34;72.32
42519;BME280;28147;47.520;18.920;2022-12-18T22:20:45;100609.50;;;-0.36;72.79
42519;BME280;28147;47.520;18.920;2022-12-18T22:23:11;100609.72;;;-0.39;73.00
42519;BME280;28147;47.520;18.920;2022-12-18T22:25:37;100610.75;;;-0.29;73.24
42519;BME280;28147;47.520;18.920;2022-12-18T22:28:02;100616.66;;;-0.51;73.48
42519;BME280;28147;47.520;18.920;2022-12-18T22:31:10;100614.44;;;-0.44;73.64
42519;BME280;28147;47.520;18.920;2022-12-18T22:33:35;100617.06;;;-0.44;73.11
42519;BME280;28147;47.520;18.920;2022-12-18T22:36:05;100615.53;;;-0.72;73.85
42519;BME280;28147;47.520;18.920;2022-12-18T22:38:30;100620.16;;;-0.76;73.92
42519;BME280;28147;47.520;18.920;2022-12-18T22:40:56;100617.53;;;-0.88;74.19
42519;BME280;28147;47.520;18.920;2022-12-18T22:43:21;100629.75;;;-0.76;74.08
42519;BME280;28147;47.520;18.920;2022-12-18T22:45:46;100618.69;;;-0.92;74.62
42519;BME280;28147;47.520;18.920;2022-12-18T22:48:13;100625.38;;;-1.01;74.98
42519;BME280;28147;47.520;18.920;2022-12-18T22:50:39;100628.41;;;-1.07;75.15
42519;BME280;28147;47.520;18.920;2022-12-18T22:53:04;100625.59;;;-0.79;76.66
42519;BME280;28147;47.520;18.920;2022-12-18T22:55:32;100629.34;;;-0.95;74.73
42519;BME280;28147;47.520;18.920;2022-12-18T22:57:57;100631.13;;;-0.96;74.92
42519;BME280;28147;47.520;18.920;2022-12-18T23:01:17;100628.84;;;-1.01;75.08
42519;BME280;28147;47.520;18.920;2022-12-18T23:10:10;100626.00;;;-1.23;76.27
42519;BME280;28147;47.520;18.920;2022-12-18T23:12:35;100616.91;;;-1.17;75.76
42519;BME280;28147;47.520;18.920;2022-12-18T23:16:10;100626.44;;;-1.04;75.33
42519;BME280;28147;47.520;18.920;2022-12-18T23:20:35;100619.94;;;-1.36;76.38
42519;BME280;28147;47.520;18.920;2022-12-18T23:29:36;100624.25;;;-0.97;75.68
42519;BME280;28147;47.520;18.920;2022-12-18T23:35:57;100619.41;;;-1.03;75.31
42519;BME280;28147;47.520;18.920;2022-12-18T23:40:10;100620.38;;;-1.04;75.35
42519;BME280;28147;47.520;18.920;2022-12-18T23:44:22;100616.72;;;-1.02;75.11
42519;BME280;28147;47.520;18.920;2022-12-18T23:46:48;100621.31;;;-1.05;75.16
42519;BME280;28147;47.520;18.920;2022-12-18T23:52:42;100630.28;;;-0.84;74.58
